Outlook, Washington
Current Conditions -  °F | °C
As of 7:53 PM on Wednesday 28 Jan 2015 (Local Time) from KYKM Reporting Station
Haze Haze  
Wind Chill: 36°   Ceiling: 200
Heat Index: 36°   Visibility: 1.5mi
Dew Point: 34°   Wind: 3mph
Humidity: 93%   Direction: 330°NNW
Pressure: 30.45"   Gusts: NA
Location:  46.33°N, 120.09°W
Report Text: KYKM 290353Z 33003KT 1 1/2SM BR OVC002 02/01 A3045 RMK AO2 SFC VIS 1 3/4 SLP323 T00220011
Loading
Personal Weather Stations






























Interactive Weather Map New forecast layout! Learn more

10-Day Weather Forecast

Advertisements
Track Severe Weather on mobile